Архив погоды в Могоче

Метеограмма Могоча
Пятница, 24 Мая
Время местн. Темп Ветер Видим Явления Облачность нижн/средн/верх Атм. давл. Влжн Точка росы ВНГО R Сост. почвы Tg s
Напр Скр Прв ур.ст ур.м изм
14:00 +12.6° С,С-З 8 13 50 км - преимущественно облачно 698 751 +2.5 51% +2.7° 1 км - - - -
11:00 +16.9° С-З 8 - 50 км - облачно с прояснениями 695 748 +1.7 40% +3.2° 1 км - - - -
08:00 +16.3° С-З 3 - 50 км - облачно 694 746 +0.8 43% +3.6° 1 км 0 Влажная (без луж) - -
05:00 +13.1° В,Ю-В 1 - 50 км - преимущественно облачно 693 746 -1 51% +3.2° 1 км - - - -
02:00 +13.6° В,Ю-В 2 - 50 км - облачно 694 747 +0.1 46% +2.2° 1 км - - - -
Четверг, 23 Мая
Время местн. Темп Ветер Видим Явления Облачность нижн/средн/верх Атм. давл. Влжн Точка росы ВНГО R Сост. почвы Tg s
Напр Скр Прв ур.ст ур.м изм
23:00 +15.8° С,С-В 2 - 50 км - облачно с прояснениями 694 747 -0.5 38% +1.7° 1 км - - - -
20:00 +19° С 3 - 50 км - облачно 694 746 +0.9 30% +0.9° 1 км 0 - - -
17:00 +22.7° С 3 - 50 км - облачно 693 745 -0.4 20% -1.5° - - - - -
14:00 +23.6° З,С-З 6 10 50 км - облачно с прояснениями 694 745 -1.1 16% -3.6° 1.5 км - - - -
11:00 +20.7° С-З 6 - 50 км - облачно с прояснениями 695 747 +0.8 21% -2.4° 1.5 км - - - -
08:00 +18.9° С 3 - 50 км - облачно с прояснениями 694 746 +0.2 35% +3.1° более 2.5 км 0 Влажная (без луж) - -
05:00 +7.1° З,Ю-З 1 - 50 км - преимущественно облачно 694 748 +0.5 74% +2.7° 1.5 км - - - -
02:00 +6.6° В 1 - 50 км - преимущественно облачно 693 748 -0.3 71% +1.7° 1.5 км - - - -
Среда, 22 Мая
Время местн. Темп Ветер Видим Явления Облачность нижн/средн/верх Атм. давл. Влжн Точка росы ВНГО R Сост. почвы Tg s
Напр Скр Прв ур.ст ур.м изм
23:00 +11.9° штиль 0 - 50 км - преимущественно облачно 694 747 +0.5 54% +2.8° 1.5 км - - - -
20:00 +19° штиль 0 - 50 км - облачно 693 745 +0.3 33% +2.4° 1.5 км 0 - - -
17:00 +23.8° З,С-З 3 - 50 км - облачно с прояснениями 693 744 -1 19% -1.3° 1.5 км - - - -
14:00 +21.7° С-З 3 - 50 км - переменная облачность 694 746 -1.7 20% -2.3° более 2.5 км - - - -
11:00 +17.7° С-З 1 - 50 км - незначительная облачность 696 748 -1.5 24% -3.3° более 2.5 км - - - -
08:00 +13° З,С-З 3 - 50 км - ясно 697 751 +0.2 28% -4.9° более 2.5 км 0 Влажная (без луж) - -
05:00 +1.1° З,С-З 1 - 50 км - ясно 697 753 0 65% -4.8° более 2.5 км - - - -
02:00 З,С-З 1 - 50 км - ясно 697 753 +0.2 68% -5.1° более 2.5 км - - - -
Вторник, 21 Мая
Время местн. Темп Ветер Видим Явления Облачность нижн/средн/верх Атм. давл. Влжн Точка росы ВНГО R Сост. почвы Tg s
Напр Скр Прв ур.ст ур.м изм
23:00 +3.1° С-З 1 - 50 км - ясно 697 752 +0.7 56% -4.7° более 2.5 км - - - -
20:00 +16.1° С,С-В 4 - 50 км - незначительная облачность 696 749 +0.2 19% -7.8° более 2.5 км 0 - - -
17:00 +18.6° С,С-В 6 11 50 км - незначительная облачность 696 748 -0.8 15% -8.1° более 2.5 км - - - -
14:00 +17.9° С 5 11 50 км - переменная облачность 697 749 -1.4 22% -4° более 2.5 км - - - -
11:00 +14.8° С 8 14 50 км - переменная облачность 698 751 -0.8 24% -5.6° более 2.5 км - - - -